Moorhead, Minnesota
Current Conditions -  °F | °C
As of 4:53 PM on Saturday 20 Dec 2014 (Local Time) from KFAR Reporting Station
Haze Haze  
Wind Chill: 20°   Ceiling: 700
Heat Index: 31°   Visibility: 6mi
Dew Point: 28°   Wind: 16mph
Humidity: 89%   Direction: 160°SSE
Pressure: 29.96"   Gusts: 22mph
Location:  46.88°N, 96.77°W
Report Text: KFAR 202253Z 16014G19KT 6SM BR OVC007 M01/M02 A2996 RMK AO2 SLP156 T10061022
Loading
Personal Weather Stations






























Interactive Weather Map New forecast layout! Learn more

10-Day Weather Forecast

Advertisements
Track Severe Weather on mobile